sensor_id;sensor_type;location;lat;lon;timestamp;pressure;altitude;pressure_sealevel;temperature;humidity
49709;BME280;35601;55.902;13.606;2023-01-08T00:01:14;99920.59;;;2.66;100.00
49709;BME280;35601;55.902;13.606;2023-01-08T00:03:40;99922.79;;;2.67;100.00
49709;BME280;35601;55.902;13.606;2023-01-08T00:06:08;99918.53;;;2.98;100.00
49709;BME280;35601;55.902;13.606;2023-01-08T00:08:30;99914.54;;;2.92;99.39
49709;BME280;35601;55.902;13.606;2023-01-08T00:10:56;99906.01;;;2.93;98.01
49709;BME280;35601;55.902;13.606;2023-01-08T00:13:22;99903.36;;;3.20;97.10
49709;BME280;35601;55.902;13.606;2023-01-08T00:15:47;99898.45;;;3.17;96.75
49709;BME280;35601;55.902;13.606;2023-01-08T00:18:13;99889.25;;;3.03;97.01
49709;BME280;35601;55.902;13.606;2023-01-08T00:20:40;99885.05;;;2.93;98.31
49709;BME280;35601;55.902;13.606;2023-01-08T00:23:03;99879.29;;;2.89;97.91
49709;BME280;35601;55.902;13.606;2023-01-08T00:25:28;99880.47;;;2.83;98.50
49709;BME280;35601;55.902;13.606;2023-01-08T00:27:54;99876.99;;;2.92;98.33
49709;BME280;35601;55.902;13.606;2023-01-08T00:30:19;99875.01;;;2.70;98.50
49709;BME280;35601;55.902;13.606;2023-01-08T00:32:44;99875.57;;;2.55;98.86
49709;BME280;35601;55.902;13.606;2023-01-08T00:35:09;99872.94;;;2.65;98.27
49709;BME280;35601;55.902;13.606;2023-01-08T00:37:35;99870.61;;;2.93;97.93
49709;BME280;35601;55.902;13.606;2023-01-08T00:40:01;99870.26;;;2.81;98.18
49709;BME280;35601;55.902;13.606;2023-01-08T00:42:26;99874.81;;;2.86;99.13
49709;BME280;35601;55.902;13.606;2023-01-08T00:44:51;99872.54;;;2.66;99.03
49709;BME280;35601;55.902;13.606;2023-01-08T00:47:17;99878.32;;;2.63;100.00
49709;BME280;35601;55.902;13.606;2023-01-08T00:49:43;99871.26;;;2.75;100.00
49709;BME280;35601;55.902;13.606;2023-01-08T00:52:08;99867.17;;;2.82;99.04
49709;BME280;35601;55.902;13.606;2023-01-08T00:54:34;99864.96;;;2.67;99.22
49709;BME280;35601;55.902;13.606;2023-01-08T00:57:00;99861.41;;;2.71;99.84
49709;BME280;35601;55.902;13.606;2023-01-08T00:59:25;99855.95;;;3.00;98.44
49709;BME280;35601;55.902;13.606;2023-01-08T01:01:51;99853.65;;;3.09;97.96
49709;BME280;35601;55.902;13.606;2023-01-08T01:04:17;99853.98;;;2.95;98.45
49709;BME280;35601;55.902;13.606;2023-01-08T01:06:42;99850.07;;;3.01;98.35
49709;BME280;35601;55.902;13.606;2023-01-08T01:09:08;99861.87;;;2.83;98.99
49709;BME280;35601;55.902;13.606;2023-01-08T01:11:33;99859.50;;;2.69;99.63
49709;BME280;35601;55.902;13.606;2023-01-08T01:13:58;99851.71;;;3.12;99.95
49709;BME280;35601;55.902;13.606;2023-01-08T01:16:23;99835.75;;;2.84;99.17
49709;BME280;35601;55.902;13.606;2023-01-08T01:18:49;99830.56;;;2.92;99.09
49709;BME280;35601;55.902;13.606;2023-01-08T01:21:21;99831.74;;;2.78;99.13
49709;BME280;35601;55.902;13.606;2023-01-08T01:23:40;99824.82;;;2.73;99.68
49709;BME280;35601;55.902;13.606;2023-01-08T01:28:30;99820.98;;;2.74;99.61
49709;BME280;35601;55.902;13.606;2023-01-08T01:30:56;99822.22;;;3.08;99.74
49709;BME280;35601;55.902;13.606;2023-01-08T01:33:22;99821.08;;;2.50;100.00
49709;BME280;35601;55.902;13.606;2023-01-08T01:35:46;99820.80;;;2.57;100.00
49709;BME280;35601;55.902;13.606;2023-01-08T01:38:13;99820.01;;;2.74;100.00
49709;BME280;35601;55.902;13.606;2023-01-08T01:40:40;99814.05;;;2.72;100.00
49709;BME280;35601;55.902;13.606;2023-01-08T01:43:03;99814.96;;;2.53;100.00
49709;BME280;35601;55.902;13.606;2023-01-08T01:45:29;99815.51;;;2.41;100.00
49709;BME280;35601;55.902;13.606;2023-01-08T01:47:57;99812.33;;;2.68;100.00
49709;BME280;35601;55.902;13.606;2023-01-08T01:50:25;99814.49;;;2.59;100.00
49709;BME280;35601;55.902;13.606;2023-01-08T01:52:50;99814.24;;;2.65;100.00
49709;BME280;35601;55.902;13.606;2023-01-08T01:55:12;99808.53;;;2.58;100.00
49709;BME280;35601;55.902;13.606;2023-01-08T01:57:37;99809.20;;;2.63;100.00
49709;BME280;35601;55.902;13.606;2023-01-08T02:00:06;99812.57;;;2.83;100.00
49709;BME280;35601;55.902;13.606;2023-01-08T02:02:27;99818.85;;;2.53;100.00
49709;BME280;35601;55.902;13.606;2023-01-08T02:04:53;99818.55;;;2.94;100.00
49709;BME280;35601;55.902;13.606;2023-01-08T02:07:24;99815.21;;;2.77;100.00
49709;BME280;35601;55.902;13.606;2023-01-08T02:09:48;99808.59;;;2.80;100.00
49709;BME280;35601;55.902;13.606;2023-01-08T02:12:11;99810.65;;;2.83;100.00
49709;BME280;35601;55.902;13.606;2023-01-08T02:14:39;99811.88;;;2.64;100.00
49709;BME280;35601;55.902;13.606;2023-01-08T02:17:05;99813.89;;;2.86;100.00
49709;BME280;35601;55.902;13.606;2023-01-08T02:19:36;99813.16;;;2.82;100.00
49709;BME280;35601;55.902;13.606;2023-01-08T02:22:00;99808.34;;;2.80;100.00
49709;BME280;35601;55.902;13.606;2023-01-08T02:24:22;99800.40;;;2.74;100.00
49709;BME280;35601;55.902;13.606;2023-01-08T02:26:43;99793.45;;;2.54;100.00
49709;BME280;35601;55.902;13.606;2023-01-08T02:29:09;99783.86;;;2.88;100.00
49709;BME280;35601;55.902;13.606;2023-01-08T02:31:34;99775.91;;;2.66;100.00
49709;BME280;35601;55.902;13.606;2023-01-08T02:33:58;99767.79;;;3.09;100.00
49709;BME280;35601;55.902;13.606;2023-01-08T02:36:27;99761.55;;;2.93;100.00
49709;BME280;35601;55.902;13.606;2023-01-08T02:39:03;99756.69;;;2.74;100.00
49709;BME280;35601;55.902;13.606;2023-01-08T02:41:14;99754.49;;;2.80;100.00
49709;BME280;35601;55.902;13.606;2023-01-08T02:43:42;99746.32;;;2.62;100.00
49709;BME280;35601;55.902;13.606;2023-01-08T02:46:05;99734.99;;;2.54;100.00
49709;BME280;35601;55.902;13.606;2023-01-08T02:48:34;99736.44;;;2.61;100.00
49709;BME280;35601;55.902;13.606;2023-01-08T02:50:59;99736.13;;;2.80;100.00
49709;BME280;35601;55.902;13.606;2023-01-08T02:53:23;99726.75;;;2.78;100.00
49709;BME280;35601;55.902;13.606;2023-01-08T02:55:52;99715.70;;;2.28;100.00
49709;BME280;35601;55.902;13.606;2023-01-08T02:58:12;99707.04;;;2.33;100.00
49709;BME280;35601;55.902;13.606;2023-01-08T03:00:39;99705.29;;;2.56;100.00
49709;BME280;35601;55.902;13.606;2023-01-08T03:03:07;99711.11;;;2.53;100.00
49709;BME280;35601;55.902;13.606;2023-01-08T03:05:29;99709.08;;;2.76;100.00
49709;BME280;35601;55.902;13.606;2023-01-08T03:07:54;99707.09;;;2.89;100.00
49709;BME280;35601;55.902;13.606;2023-01-08T03:10:21;99710.21;;;2.69;100.00
49709;BME280;35601;55.902;13.606;2023-01-08T03:12:49;99709.94;;;2.38;100.00
49709;BME280;35601;55.902;13.606;2023-01-08T03:15:13;99701.34;;;2.13;100.00
49709;BME280;35601;55.902;13.606;2023-01-08T03:17:37;99699.49;;;1.84;100.00
49709;BME280;35601;55.902;13.606;2023-01-08T03:20:03;99695.22;;;2.29;100.00
49709;BME280;35601;55.902;13.606;2023-01-08T03:22:27;99695.39;;;2.56;100.00
49709;BME280;35601;55.902;13.606;2023-01-08T03:24:52;99689.07;;;2.06;100.00
49709;BME280;35601;55.902;13.606;2023-01-08T03:27:19;99681.97;;;1.89;100.00
49709;BME280;35601;55.902;13.606;2023-01-08T03:29:43;99683.96;;;2.17;100.00
49709;BME280;35601;55.902;13.606;2023-01-08T03:32:12;99682.06;;;2.48;100.00
49709;BME280;35601;55.902;13.606;2023-01-08T03:34:36;99677.53;;;2.66;100.00
49709;BME280;35601;55.902;13.606;2023-01-08T03:37:00;99674.77;;;2.43;100.00
49709;BME280;35601;55.902;13.606;2023-01-08T03:39:27;99667.34;;;2.03;100.00
49709;BME280;35601;55.902;13.606;2023-01-08T03:41:50;99670.14;;;2.40;100.00
49709;BME280;35601;55.902;13.606;2023-01-08T03:44:15;99667.52;;;2.25;100.00
49709;BME280;35601;55.902;13.606;2023-01-08T03:46:46;99669.56;;;2.22;100.00
49709;BME280;35601;55.902;13.606;2023-01-08T03:49:06;99676.04;;;2.28;100.00
49709;BME280;35601;55.902;13.606;2023-01-08T03:51:39;99671.78;;;2.32;100.00
49709;BME280;35601;55.902;13.606;2023-01-08T03:53:58;99672.05;;;2.11;100.00
49709;BME280;35601;55.902;13.606;2023-01-08T03:56:23;99675.73;;;2.13;100.00
49709;BME280;35601;55.902;13.606;2023-01-08T03:58:48;99669.06;;;2.06;100.00
49709;BME280;35601;55.902;13.606;2023-01-08T04:01:14;99660.06;;;2.03;100.00
49709;BME280;35601;55.902;13.606;2023-01-08T04:03:39;99662.03;;;1.77;100.00
49709;BME280;35601;55.902;13.606;2023-01-08T04:06:05;99665.95;;;2.43;100.00
49709;BME280;35601;55.902;13.606;2023-01-08T04:08:30;99673.24;;;2.35;100.00
49709;BME280;35601;55.902;13.606;2023-01-08T04:10:55;99676.20;;;2.07;100.00
49709;BME280;35601;55.902;13.606;2023-01-08T04:13:21;99672.90;;;2.19;100.00
49709;BME280;35601;55.902;13.606;2023-01-08T04:15:47;99666.83;;;2.08;100.00
49709;BME280;35601;55.902;13.606;2023-01-08T04:18:12;99661.81;;;2.50;100.00
49709;BME280;35601;55.902;13.606;2023-01-08T04:20:37;99660.51;;;2.13;100.00
49709;BME280;35601;55.902;13.606;2023-01-08T04:23:02;99665.90;;;2.16;100.00
49709;BME280;35601;55.902;13.606;2023-01-08T04:25:28;99662.43;;;2.37;100.00
49709;BME280;35601;55.902;13.606;2023-01-08T04:27:53;99658.37;;;2.09;100.00
49709;BME280;35601;55.902;13.606;2023-01-08T04:30:19;99654.78;;;2.18;100.00
49709;BME280;35601;55.902;13.606;2023-01-08T04:32:45;99653.64;;;2.25;100.00
49709;BME280;35601;55.902;13.606;2023-01-08T04:35:10;99663.51;;;2.28;100.00
49709;BME280;35601;55.902;13.606;2023-01-08T04:37:36;99668.30;;;2.00;100.00
49709;BME280;35601;55.902;13.606;2023-01-08T04:40:01;99668.14;;;2.44;100.00
49709;BME280;35601;55.902;13.606;2023-01-08T04:42:26;99666.72;;;2.42;100.00
49709;BME280;35601;55.902;13.606;2023-01-08T04:44:51;99658.76;;;2.47;100.00
49709;BME280;35601;55.902;13.606;2023-01-08T04:47:16;99646.73;;;2.68;100.00
49709;BME280;35601;55.902;13.606;2023-01-08T04:49:42;99641.69;;;2.36;100.00
49709;BME280;35601;55.902;13.606;2023-01-08T04:52:08;99644.52;;;2.37;100.00
49709;BME280;35601;55.902;13.606;2023-01-08T04:54:33;99644.73;;;2.31;100.00
49709;BME280;35601;55.902;13.606;2023-01-08T04:56:59;99644.05;;;2.29;100.00
49709;BME280;35601;55.902;13.606;2023-01-08T04:59:24;99637.88;;;2.41;100.00
49709;BME280;35601;55.902;13.606;2023-01-08T05:01:50;99640.93;;;2.43;100.00
49709;BME280;35601;55.902;13.606;2023-01-08T05:04:15;99644.74;;;2.17;100.00
49709;BME280;35601;55.902;13.606;2023-01-08T05:06:41;99642.13;;;2.43;100.00
49709;BME280;35601;55.902;13.606;2023-01-08T05:09:07;99632.34;;;2.49;100.00
49709;BME280;35601;55.902;13.606;2023-01-08T05:11:32;99628.21;;;2.14;100.00
49709;BME280;35601;55.902;13.606;2023-01-08T05:13:58;99618.65;;;1.23;100.00
49709;BME280;35601;55.902;13.606;2023-01-08T05:16:23;99615.92;;;2.09;100.00
49709;BME280;35601;55.902;13.606;2023-01-08T05:18:49;99609.62;;;2.36;100.00
49709;BME280;35601;55.902;13.606;2023-01-08T05:21:14;99602.80;;;2.19;100.00
49709;BME280;35601;55.902;13.606;2023-01-08T05:23:43;99606.57;;;2.25;100.00
49709;BME280;35601;55.902;13.606;2023-01-08T05:26:06;99608.69;;;2.19;99.93
49709;BME280;35601;55.902;13.606;2023-01-08T05:28:31;99605.13;;;2.50;99.59
49709;BME280;35601;55.902;13.606;2023-01-08T05:30:56;99605.96;;;2.09;100.00
49709;BME280;35601;55.902;13.606;2023-01-08T05:33:22;99601.53;;;2.30;100.00
49709;BME280;35601;55.902;13.606;2023-01-08T05:35:48;99599.59;;;2.15;100.00
49709;BME280;35601;55.902;13.606;2023-01-08T05:38:13;99600.14;;;2.14;100.00
49709;BME280;35601;55.902;13.606;2023-01-08T05:40:38;99601.86;;;2.57;99.29
49709;BME280;35601;55.902;13.606;2023-01-08T05:43:03;99603.31;;;1.90;100.00
49709;BME280;35601;55.902;13.606;2023-01-08T05:45:28;99606.06;;;2.14;99.69
49709;BME280;35601;55.902;13.606;2023-01-08T05:47:54;99610.62;;;1.84;100.00
49709;BME280;35601;55.902;13.606;2023-01-08T05:50:20;99605.85;;;1.76;100.00
49709;BME280;35601;55.902;13.606;2023-01-08T05:52:46;99603.76;;;2.30;100.00
49709;BME280;35601;55.902;13.606;2023-01-08T05:55:11;99607.59;;;1.95;99.07
49709;BME280;35601;55.902;13.606;2023-01-08T05:57:37;99601.57;;;2.19;99.73
49709;BME280;35601;55.902;13.606;2023-01-08T06:00:03;99606.26;;;2.34;98.58
49709;BME280;35601;55.902;13.606;2023-01-08T06:02:27;99608.71;;;1.86;98.94
49709;BME280;35601;55.902;13.606;2023-01-08T06:04:53;99615.32;;;2.60;98.46
49709;BME280;35601;55.902;13.606;2023-01-08T06:07:19;99613.92;;;2.19;97.56
49709;BME280;35601;55.902;13.606;2023-01-08T06:09:44;99617.53;;;2.20;98.81
49709;BME280;35601;55.902;13.606;2023-01-08T06:12:09;99621.51;;;1.96;100.00
49709;BME280;35601;55.902;13.606;2023-01-08T06:14:35;99617.17;;;1.70;100.00
49709;BME280;35601;55.902;13.606;2023-01-08T06:17:00;99609.26;;;1.71;100.00
49709;BME280;35601;55.902;13.606;2023-01-08T06:19:25;99608.33;;;1.86;100.00
49709;BME280;35601;55.902;13.606;2023-01-08T06:21:51;99600.15;;;2.24;100.00
49709;BME280;35601;55.902;13.606;2023-01-08T06:24:17;99604.69;;;1.71;100.00
49709;BME280;35601;55.902;13.606;2023-01-08T06:26:42;99603.45;;;2.12;100.00
49709;BME280;35601;55.902;13.606;2023-01-08T06:29:08;99593.12;;;2.12;100.00
49709;BME280;35601;55.902;13.606;2023-01-08T06:31:33;99603.20;;;1.74;100.00
49709;BME280;35601;55.902;13.606;2023-01-08T06:33:59;99606.91;;;2.25;100.00
49709;BME280;35601;55.902;13.606;2023-01-08T06:36:24;99606.91;;;2.12;100.00
49709;BME280;35601;55.902;13.606;2023-01-08T06:38:50;99597.65;;;1.95;100.00
49709;BME280;35601;55.902;13.606;2023-01-08T06:41:15;99596.50;;;2.20;100.00
49709;BME280;35601;55.902;13.606;2023-01-08T06:43:41;99595.57;;;1.97;100.00
49709;BME280;35601;55.902;13.606;2023-01-08T06:46:08;99593.86;;;2.02;99.79
49709;BME280;35601;55.902;13.606;2023-01-08T06:48:32;99594.52;;;2.23;98.86
49709;BME280;35601;55.902;13.606;2023-01-08T06:50:59;99594.90;;;2.18;99.44
49709;BME280;35601;55.902;13.606;2023-01-08T06:53:23;99587.19;;;2.18;98.86
49709;BME280;35601;55.902;13.606;2023-01-08T06:55:48;99590.92;;;2.47;98.70
49709;BME280;35601;55.902;13.606;2023-01-08T06:58:13;99589.63;;;2.59;97.76
49709;BME280;35601;55.902;13.606;2023-01-08T07:00:39;99583.16;;;2.21;98.05
49709;BME280;35601;55.902;13.606;2023-01-08T07:03:05;99578.86;;;1.98;99.00
49709;BME280;35601;55.902;13.606;2023-01-08T07:05:30;99577.99;;;2.10;99.75
49709;BME280;35601;55.902;13.606;2023-01-08T07:07:56;99573.43;;;1.88;99.83
49709;BME280;35601;55.902;13.606;2023-01-08T07:10:21;99564.95;;;2.32;99.73
49709;BME280;35601;55.902;13.606;2023-01-08T07:12:47;99557.30;;;2.18;99.40
49709;BME280;35601;55.902;13.606;2023-01-08T07:15:12;99565.40;;;2.44;99.47
49709;BME280;35601;55.902;13.606;2023-01-08T07:17:37;99569.07;;;1.96;100.00
49709;BME280;35601;55.902;13.606;2023-01-08T07:20:03;99562.54;;;2.21;100.00
49709;BME280;35601;55.902;13.606;2023-01-08T07:22:27;99557.23;;;2.03;100.00
49709;BME280;35601;55.902;13.606;2023-01-08T07:24:52;99559.88;;;1.85;99.91
49709;BME280;35601;55.902;13.606;2023-01-08T07:27:17;99565.55;;;2.14;99.67
49709;BME280;35601;55.902;13.606;2023-01-08T07:29:43;99570.18;;;2.06;98.95
49709;BME280;35601;55.902;13.606;2023-01-08T07:32:08;99570.62;;;2.12;98.88
49709;BME280;35601;55.902;13.606;2023-01-08T07:34:34;99577.50;;;1.99;99.28
49709;BME280;35601;55.902;13.606;2023-01-08T07:37:00;99573.27;;;2.18;99.29
49709;BME280;35601;55.902;13.606;2023-01-08T07:39:25;99578.88;;;2.16;99.08
49709;BME280;35601;55.902;13.606;2023-01-08T07:41:51;99580.64;;;2.09;99.61
49709;BME280;35601;55.902;13.606;2023-01-08T07:44:16;99580.69;;;2.22;99.55
49709;BME280;35601;55.902;13.606;2023-01-08T07:46:42;99578.76;;;2.04;99.30
49709;BME280;35601;55.902;13.606;2023-01-08T07:49:08;99573.09;;;2.37;98.15
49709;BME280;35601;55.902;13.606;2023-01-08T07:51:33;99572.09;;;2.44;97.80
49709;BME280;35601;55.902;13.606;2023-01-08T07:53:58;99580.39;;;2.32;97.76
49709;BME280;35601;55.902;13.606;2023-01-08T07:56:23;99577.92;;;2.43;97.49
49709;BME280;35601;55.902;13.606;2023-01-08T07:58:49;99575.36;;;2.45;97.12
49709;BME280;35601;55.902;13.606;2023-01-08T08:01:15;99570.82;;;2.22;97.26
49709;BME280;35601;55.902;13.606;2023-01-08T08:03:40;99568.72;;;2.67;97.45
49709;BME280;35601;55.902;13.606;2023-01-08T08:06:06;99570.59;;;2.44;96.81
49709;BME280;35601;55.902;13.606;2023-01-08T08:08:31;99571.74;;;2.34;97.67
49709;BME280;35601;55.902;13.606;2023-01-08T08:10:57;99573.51;;;2.40;97.21
49709;BME280;35601;55.902;13.606;2023-01-08T08:13:22;99570.81;;;2.38;97.44
49709;BME280;35601;55.902;13.606;2023-01-08T08:15:47;99565.81;;;2.59;96.85
49709;BME280;35601;55.902;13.606;2023-01-08T08:18:12;99564.86;;;2.57;97.52
49709;BME280;35601;55.902;13.606;2023-01-08T08:20:38;99556.48;;;2.44;96.36
49709;BME280;35601;55.902;13.606;2023-01-08T08:23:06;99552.92;;;2.39;96.96
49709;BME280;35601;55.902;13.606;2023-01-08T08:25:30;99548.99;;;2.60;96.83
49709;BME280;35601;55.902;13.606;2023-01-08T08:27:56;99551.79;;;2.69;97.23
49709;BME280;35601;55.902;13.606;2023-01-08T08:30:20;99554.89;;;2.43;96.39
49709;BME280;35601;55.902;13.606;2023-01-08T08:32:46;99553.31;;;2.50;96.11
49709;BME280;35601;55.902;13.606;2023-01-08T08:35:12;99554.49;;;2.65;96.37
49709;BME280;35601;55.902;13.606;2023-01-08T08:37:37;99556.44;;;2.53;97.30
49709;BME280;35601;55.902;13.606;2023-01-08T08:40:03;99554.01;;;2.65;96.45
49709;BME280;35601;55.902;13.606;2023-01-08T08:42:28;99555.21;;;2.52;97.24
49709;BME280;35601;55.902;13.606;2023-01-08T08:44:54;99548.93;;;2.75;96.23
49709;BME280;35601;55.902;13.606;2023-01-08T08:47:20;99548.28;;;2.52;97.56
49709;BME280;35601;55.902;13.606;2023-01-08T08:49:45;99542.33;;;2.59;97.63
49709;BME280;35601;55.902;13.606;2023-01-08T08:52:11;99543.00;;;2.36;97.08
49709;BME280;35601;55.902;13.606;2023-01-08T08:54:36;99537.75;;;2.50;98.06
49709;BME280;35601;55.902;13.606;2023-01-08T08:57:01;99535.79;;;2.30;97.53
49709;BME280;35601;55.902;13.606;2023-01-08T08:59:27;99527.83;;;3.00;96.88
49709;BME280;35601;55.902;13.606;2023-01-08T09:01:52;99527.87;;;3.01;96.71
49709;BME280;35601;55.902;13.606;2023-01-08T09:04:18;99533.81;;;2.58;96.65
49709;BME280;35601;55.902;13.606;2023-01-08T09:06:43;99536.88;;;2.52;96.91
49709;BME280;35601;55.902;13.606;2023-01-08T09:09:09;99537.51;;;2.39;97.64
49709;BME280;35601;55.902;13.606;2023-01-08T09:11:35;99532.13;;;2.55;96.92
49709;BME280;35601;55.902;13.606;2023-01-08T09:14:00;99527.73;;;2.67;97.49
49709;BME280;35601;55.902;13.606;2023-01-08T09:16:26;99526.55;;;2.71;96.60
49709;BME280;35601;55.902;13.606;2023-01-08T09:18:51;99525.91;;;2.78;96.20
49709;BME280;35601;55.902;13.606;2023-01-08T09:21:17;99529.29;;;2.85;96.09
49709;BME280;35601;55.902;13.606;2023-01-08T09:23:42;99525.09;;;2.46;97.32
49709;BME280;35601;55.902;13.606;2023-01-08T09:26:08;99523.57;;;2.69;96.47
49709;BME280;35601;55.902;13.606;2023-01-08T09:28:33;99520.61;;;2.68;97.25
49709;BME280;35601;55.902;13.606;2023-01-08T09:31:00;99517.46;;;2.54;97.34
49709;BME280;35601;55.902;13.606;2023-01-08T09:33:24;99513.35;;;2.47;96.54
49709;BME280;35601;55.902;13.606;2023-01-08T09:35:49;99507.90;;;2.49;97.29
49709;BME280;35601;55.902;13.606;2023-01-08T09:38:14;99514.01;;;2.76;96.51
49709;BME280;35601;55.902;13.606;2023-01-08T09:40:43;99517.68;;;2.78;96.20
49709;BME280;35601;55.902;13.606;2023-01-08T09:43:08;99515.80;;;2.72;96.51
49709;BME280;35601;55.902;13.606;2023-01-08T09:45:33;99515.46;;;2.87;96.00
49709;BME280;35601;55.902;13.606;2023-01-08T09:47:58;99510.58;;;2.69;95.51
49709;BME280;35601;55.902;13.606;2023-01-08T09:50:25;99511.51;;;2.85;95.83
49709;BME280;35601;55.902;13.606;2023-01-08T09:52:48;99511.52;;;2.92;95.75
49709;BME280;35601;55.902;13.606;2023-01-08T09:55:15;99506.71;;;2.71;96.41
49709;BME280;35601;55.902;13.606;2023-01-08T09:57:38;99507.26;;;2.87;95.89
49709;BME280;35601;55.902;13.606;2023-01-08T10:00:12;99505.48;;;2.74;95.61
49709;BME280;35601;55.902;13.606;2023-01-08T10:02:31;99500.17;;;2.83;94.81
49709;BME280;35601;55.902;13.606;2023-01-08T10:04:57;99494.83;;;2.70;96.32
49709;BME280;35601;55.902;13.606;2023-01-08T10:07:22;99494.51;;;2.78;96.00
49709;BME280;35601;55.902;13.606;2023-01-08T10:09:47;99490.47;;;2.62;96.87
49709;BME280;35601;55.902;13.606;2023-01-08T10:12:12;99491.07;;;2.56;97.26
49709;BME280;35601;55.902;13.606;2023-01-08T10:14:39;99488.08;;;2.58;97.41
49709;BME280;35601;55.902;13.606;2023-01-08T10:17:07;99482.92;;;2.52;96.64
49709;BME280;35601;55.902;13.606;2023-01-08T10:19:28;99487.48;;;2.44;97.67
49709;BME280;35601;55.902;13.606;2023-01-08T10:21:55;99485.76;;;2.10;99.23
49709;BME280;35601;55.902;13.606;2023-01-08T10:24:30;99482.19;;;2.20;98.97
49709;BME280;35601;55.902;13.606;2023-01-08T10:26:44;99476.45;;;2.44;100.00
49709;BME280;35601;55.902;13.606;2023-01-08T10:29:12;99475.19;;;2.08;99.95
49709;BME280;35601;55.902;13.606;2023-01-08T10:31:43;99473.85;;;2.34;98.95
49709;BME280;35601;55.902;13.606;2023-01-08T10:34:07;99473.92;;;2.43;99.08
49709;BME280;35601;55.902;13.606;2023-01-08T10:36:26;99470.87;;;2.44;99.43
49709;BME280;35601;55.902;13.606;2023-01-08T10:38:55;99469.82;;;2.36;99.05
49709;BME280;35601;55.902;13.606;2023-01-08T10:41:17;99467.76;;;2.42;98.79
49709;BME280;35601;55.902;13.606;2023-01-08T10:43:49;99464.21;;;2.74;98.23
49709;BME280;35601;55.902;13.606;2023-01-08T10:46:16;99464.59;;;2.55;98.14
49709;BME280;35601;55.902;13.606;2023-01-08T10:48:37;99458.08;;;2.43;99.04
49709;BME280;35601;55.902;13.606;2023-01-08T10:51:05;99456.72;;;2.22;100.00
49709;BME280;35601;55.902;13.606;2023-01-08T10:53:27;99457.22;;;2.19;99.87
49709;BME280;35601;55.902;13.606;2023-01-08T10:55:56;99453.66;;;2.67;99.31
49709;BME280;35601;55.902;13.606;2023-01-08T10:58:15;99451.21;;;2.35;100.00
49709;BME280;35601;55.902;13.606;2023-01-08T11:00:41;99453.20;;;2.21;100.00
49709;BME280;35601;55.902;13.606;2023-01-08T11:03:14;99452.67;;;2.82;99.63
49709;BME280;35601;55.902;13.606;2023-01-08T11:05:34;99451.75;;;2.21;99.54
49709;BME280;35601;55.902;13.606;2023-01-08T11:07:58;99452.47;;;2.62;100.00
49709;BME280;35601;55.902;13.606;2023-01-08T11:10:25;99449.86;;;2.58;100.00
49709;BME280;35601;55.902;13.606;2023-01-08T11:12:53;99448.46;;;2.09;100.00
49709;BME280;35601;55.902;13.606;2023-01-08T11:17:39;99444.09;;;2.25;100.00
49709;BME280;35601;55.902;13.606;2023-01-08T11:20:08;99443.00;;;2.51;100.00
49709;BME280;35601;55.902;13.606;2023-01-08T11:22:30;99437.86;;;2.06;100.00
49709;BME280;35601;55.902;13.606;2023-01-08T11:24:56;99436.64;;;2.10;100.00
49709;BME280;35601;55.902;13.606;2023-01-08T11:27:24;99433.64;;;2.17;100.00
49709;BME280;35601;55.902;13.606;2023-01-08T11:29:52;99430.85;;;2.33;100.00
49709;BME280;35601;55.902;13.606;2023-01-08T11:32:27;99425.19;;;2.22;100.00
49709;BME280;35601;55.902;13.606;2023-01-08T11:34:46;99421.36;;;2.34;100.00
49709;BME280;35601;55.902;13.606;2023-01-08T11:37:09;99419.29;;;2.21;100.00
49709;BME280;35601;55.902;13.606;2023-01-08T11:39:29;99421.27;;;2.39;100.00
49709;BME280;35601;55.902;13.606;2023-01-08T11:42:11;99419.77;;;2.09;100.00
49709;BME280;35601;55.902;13.606;2023-01-08T11:44:32;99417.90;;;2.38;100.00
49709;BME280;35601;55.902;13.606;2023-01-08T11:46:51;99418.30;;;2.45;100.00
49709;BME280;35601;55.902;13.606;2023-01-08T11:49:24;99417.59;;;2.54;100.00
49709;BME280;35601;55.902;13.606;2023-01-08T11:51:47;99414.40;;;2.15;100.00
49709;BME280;35601;55.902;13.606;2023-01-08T11:54:11;99408.79;;;2.52;100.00
49709;BME280;35601;55.902;13.606;2023-01-08T11:56:37;99403.83;;;2.26;100.00
49709;BME280;35601;55.902;13.606;2023-01-08T11:59:03;99403.41;;;2.55;100.00
49709;BME280;35601;55.902;13.606;2023-01-08T12:01:31;99401.05;;;2.79;100.00
49709;BME280;35601;55.902;13.606;2023-01-08T12:03:48;99399.40;;;2.43;99.62
49709;BME280;35601;55.902;13.606;2023-01-08T12:06:21;99396.88;;;2.29;100.00
49709;BME280;35601;55.902;13.606;2023-01-08T12:08:42;99396.14;;;2.18;100.00
49709;BME280;35601;55.902;13.606;2023-01-08T12:11:06;99395.64;;;2.48;99.84
49709;BME280;35601;55.902;13.606;2023-01-08T12:13:36;99394.62;;;2.50;99.37
49709;BME280;35601;55.902;13.606;2023-01-08T12:16:00;99393.19;;;2.60;98.57
49709;BME280;35601;55.902;13.606;2023-01-08T12:18:25;99392.41;;;2.59;100.00
49709;BME280;35601;55.902;13.606;2023-01-08T12:20:45;99389.51;;;2.24;100.00
49709;BME280;35601;55.902;13.606;2023-01-08T12:23:17;99389.32;;;2.60;100.00
49709;BME280;35601;55.902;13.606;2023-01-08T12:25:40;99382.65;;;2.78;100.00
49709;BME280;35601;55.902;13.606;2023-01-08T12:28:05;99376.79;;;2.22;100.00
49709;BME280;35601;55.902;13.606;2023-01-08T12:30:29;99373.58;;;2.34;99.92
49709;BME280;35601;55.902;13.606;2023-01-08T12:32:50;99373.24;;;2.76;98.94
49709;BME280;35601;55.902;13.606;2023-01-08T12:35:17;99367.37;;;2.22;99.65
49709;BME280;35601;55.902;13.606;2023-01-08T12:37:42;99362.76;;;2.34;99.87
49709;BME280;35601;55.902;13.606;2023-01-08T12:40:12;99364.04;;;2.42;99.45
49709;BME280;35601;55.902;13.606;2023-01-08T12:42:31;99361.82;;;2.58;99.10
49709;BME280;35601;55.902;13.606;2023-01-08T12:44:57;99360.45;;;2.41;99.41
49709;BME280;35601;55.902;13.606;2023-01-08T12:47:24;99363.63;;;2.64;98.94
49709;BME280;35601;55.902;13.606;2023-01-08T12:49:49;99364.39;;;2.57;99.76